sensor_id;sensor_type;location;lat;lon;timestamp;pressure;altitude;pressure_sealevel;temperature;humidity
54146;BME280;65909;49.422;7.738;2023-03-14T00:00:20;74811.81;;;-145.25;97.67
54146;BME280;65909;49.422;7.738;2023-03-14T00:02:51;74791.78;;;-145.25;97.35
54146;BME280;65909;49.422;7.738;2023-03-14T00:05:17;74797.78;;;-145.25;97.93
54146;BME280;65909;49.422;7.738;2023-03-14T00:07:42;74793.78;;;-145.25;97.70
54146;BME280;65909;49.422;7.738;2023-03-14T00:10:10;74793.78;;;-145.25;97.16
54146;BME280;65909;49.422;7.738;2023-03-14T00:12:37;74809.81;;;-145.25;97.59
54146;BME280;65909;49.422;7.738;2023-03-14T00:15:03;74805.81;;;-145.25;97.39
54146;BME280;65909;49.422;7.738;2023-03-14T00:17:30;74791.78;;;-145.25;97.47
54146;BME280;65909;49.422;7.738;2023-03-14T00:19:55;74795.78;;;-145.25;96.54
54146;BME280;65909;49.422;7.738;2023-03-14T00:22:21;74795.78;;;-145.25;96.60
54146;BME280;65909;49.422;7.738;2023-03-14T00:24:46;74793.78;;;-145.25;95.50
54146;BME280;65909;49.422;7.738;2023-03-14T00:27:12;74787.78;;;-145.25;94.90
54146;BME280;65909;49.422;7.738;2023-03-14T00:29:37;74797.78;;;-145.25;95.46
54146;BME280;65909;49.422;7.738;2023-03-14T00:32:03;74791.78;;;-145.25;94.26
54146;BME280;65909;49.422;7.738;2023-03-14T00:34:30;74793.78;;;-145.25;94.19
54146;BME280;65909;49.422;7.738;2023-03-14T00:36:55;74805.81;;;-145.25;94.48
54146;BME280;65909;49.422;7.738;2023-03-14T00:39:20;74813.81;;;-145.25;94.92
54146;BME280;65909;49.422;7.738;2023-03-14T00:41:46;74817.84;;;-145.25;95.17
54146;BME280;65909;49.422;7.738;2023-03-14T00:44:12;74817.84;;;-145.25;95.54
54146;BME280;65909;49.422;7.738;2023-03-14T00:46:37;74817.84;;;-145.25;95.72
54146;BME280;65909;49.422;7.738;2023-03-14T00:49:03;74831.88;;;-145.25;95.76
54146;BME280;65909;49.422;7.738;2023-03-14T00:51:28;74821.84;;;-145.25;95.94
54146;BME280;65909;49.422;7.738;2023-03-14T00:53:53;74809.81;;;-145.25;95.72
54146;BME280;65909;49.422;7.738;2023-03-14T00:56:19;74805.81;;;-145.25;95.41
54146;BME280;65909;49.422;7.738;2023-03-14T00:58:44;74793.78;;;-145.25;94.87
54146;BME280;65909;49.422;7.738;2023-03-14T01:01:13;74787.78;;;-145.25;94.38
54146;BME280;65909;49.422;7.738;2023-03-14T01:03:39;74783.78;;;-145.25;94.41
54146;BME280;65909;49.422;7.738;2023-03-14T01:06:09;74781.75;;;-145.25;93.89
54146;BME280;65909;49.422;7.738;2023-03-14T01:08:35;74783.78;;;-145.25;93.34
54146;BME280;65909;49.422;7.738;2023-03-14T01:11:08;74789.78;;;-145.25;92.88
54146;BME280;65909;49.422;7.738;2023-03-14T01:13:34;74781.75;;;-145.25;92.06
54146;BME280;65909;49.422;7.738;2023-03-14T01:16:04;74805.81;;;-145.25;92.05
54146;BME280;65909;49.422;7.738;2023-03-14T01:18:31;74777.75;;;-145.25;91.20
54146;BME280;65909;49.422;7.738;2023-03-14T01:20:57;74783.78;;;-145.25;90.60
54146;BME280;65909;49.422;7.738;2023-03-14T01:23:22;74789.78;;;-145.25;90.73
54146;BME280;65909;49.422;7.738;2023-03-14T01:25:47;74791.78;;;-145.25;91.04
54146;BME280;65909;49.422;7.738;2023-03-14T01:28:13;74785.78;;;-145.25;90.68
54146;BME280;65909;49.422;7.738;2023-03-14T01:30:38;74781.75;;;-145.25;90.88
54146;BME280;65909;49.422;7.738;2023-03-14T01:33:03;74783.78;;;-145.25;90.99
54146;BME280;65909;49.422;7.738;2023-03-14T01:35:29;74777.75;;;-145.25;90.83
54146;BME280;65909;49.422;7.738;2023-03-14T01:37:54;74773.75;;;-145.25;90.78
54146;BME280;65909;49.422;7.738;2023-03-14T01:40:20;74777.75;;;-145.25;90.85
54146;BME280;65909;49.422;7.738;2023-03-14T01:42:55;74777.75;;;-145.25;91.59
54146;BME280;65909;49.422;7.738;2023-03-14T01:48:24;74759.72;;;-145.25;90.62
54146;BME280;65909;49.422;7.738;2023-03-14T01:50:50;74753.72;;;-145.25;90.34
54146;BME280;65909;49.422;7.738;2023-03-14T01:53:16;74757.72;;;-145.25;90.01
54146;BME280;65909;49.422;7.738;2023-03-14T01:55:42;74735.69;;;-145.25;89.31
54146;BME280;65909;49.422;7.738;2023-03-14T01:58:08;74733.66;;;-145.25;88.74
54146;BME280;65909;49.422;7.738;2023-03-14T02:00:34;74733.66;;;-145.25;88.71
54146;BME280;65909;49.422;7.738;2023-03-14T02:03:07;74733.66;;;-145.25;88.39
54146;BME280;65909;49.422;7.738;2023-03-14T02:05:38;74729.66;;;-145.25;88.14
54146;BME280;65909;49.422;7.738;2023-03-14T02:08:07;74713.63;;;-145.25;87.37
54146;BME280;65909;49.422;7.738;2023-03-14T02:10:43;74691.59;;;-145.25;86.07
54146;BME280;65909;49.422;7.738;2023-03-14T02:13:10;74687.56;;;-145.25;86.21
54146;BME280;65909;49.422;7.738;2023-03-14T02:15:36;74703.59;;;-145.25;86.57
54146;BME280;65909;49.422;7.738;2023-03-14T02:18:03;74693.59;;;-145.25;86.48
54146;BME280;65909;49.422;7.738;2023-03-14T02:21:20;74683.56;;;-145.25;85.63
54146;BME280;65909;49.422;7.738;2023-03-14T02:26:11;74689.59;;;-145.25;85.16
54146;BME280;65909;49.422;7.738;2023-03-14T02:28:40;74677.56;;;-145.25;86.41
54146;BME280;65909;49.422;7.738;2023-03-14T02:31:06;74669.53;;;-145.25;85.88
54146;BME280;65909;49.422;7.738;2023-03-14T02:33:35;74653.50;;;-145.25;86.45
54146;BME280;65909;49.422;7.738;2023-03-14T02:36:05;74685.56;;;-145.25;89.34
54146;BME280;65909;49.422;7.738;2023-03-14T02:41:20;74697.59;;;-145.25;90.06
54146;BME280;65909;49.422;7.738;2023-03-14T02:43:46;74693.59;;;-145.25;89.44
54146;BME280;65909;49.422;7.738;2023-03-14T02:46:13;74687.56;;;-145.25;88.24
54146;BME280;65909;49.422;7.738;2023-03-14T02:48:43;74657.53;;;-145.25;87.23
54146;BME280;65909;49.422;7.738;2023-03-14T02:51:10;74677.56;;;-145.25;86.82
54146;BME280;65909;49.422;7.738;2023-03-14T02:53:37;74673.56;;;-145.25;87.04
54146;BME280;65909;49.422;7.738;2023-03-14T02:56:04;74649.50;;;-145.25;86.31
54146;BME280;65909;49.422;7.738;2023-03-14T02:58:29;74669.53;;;-145.25;86.13
54146;BME280;65909;49.422;7.738;2023-03-14T03:00:55;74675.56;;;-145.25;85.63
54146;BME280;65909;49.422;7.738;2023-03-14T03:03:20;74665.53;;;-145.25;85.53
54146;BME280;65909;49.422;7.738;2023-03-14T03:05:50;74655.50;;;-145.25;85.18
54146;BME280;65909;49.422;7.738;2023-03-14T03:08:17;74675.56;;;-145.25;86.23
54146;BME280;65909;49.422;7.738;2023-03-14T03:10:42;74659.53;;;-145.25;85.83
54146;BME280;65909;49.422;7.738;2023-03-14T03:13:07;74671.53;;;-145.25;85.65
54146;BME280;65909;49.422;7.738;2023-03-14T03:15:33;74663.53;;;-145.25;85.72
54146;BME280;65909;49.422;7.738;2023-03-14T03:17:59;74667.53;;;-145.25;85.73
54146;BME280;65909;49.422;7.738;2023-03-14T03:20:24;74693.59;;;-145.25;85.75
54146;BME280;65909;49.422;7.738;2023-03-14T03:22:50;74673.56;;;-145.25;85.01
54146;BME280;65909;49.422;7.738;2023-03-14T03:25:15;74679.56;;;-145.25;85.42
54146;BME280;65909;49.422;7.738;2023-03-14T03:27:41;74687.56;;;-145.25;85.34
54146;BME280;65909;49.422;7.738;2023-03-14T03:30:07;74685.56;;;-145.25;85.15
54146;BME280;65909;49.422;7.738;2023-03-14T03:32:32;74669.53;;;-145.25;84.75
54146;BME280;65909;49.422;7.738;2023-03-14T03:34:58;74685.56;;;-145.25;84.53
54146;BME280;65909;49.422;7.738;2023-03-14T03:37:23;74671.53;;;-145.25;84.83
54146;BME280;65909;49.422;7.738;2023-03-14T03:39:52;74679.56;;;-145.25;86.97
54146;BME280;65909;49.422;7.738;2023-03-14T03:42:18;74689.59;;;-145.25;87.86
54146;BME280;65909;49.422;7.738;2023-03-14T03:44:45;74681.56;;;-145.25;87.17
54146;BME280;65909;49.422;7.738;2023-03-14T03:47:10;74671.53;;;-145.25;86.63
54146;BME280;65909;49.422;7.738;2023-03-14T03:49:36;74689.59;;;-145.25;88.16
54146;BME280;65909;49.422;7.738;2023-03-14T03:52:01;74681.56;;;-145.25;87.25
54146;BME280;65909;49.422;7.738;2023-03-14T03:54:26;74661.53;;;-145.25;86.41
54146;BME280;65909;49.422;7.738;2023-03-14T03:56:53;74661.53;;;-145.25;86.06
54146;BME280;65909;49.422;7.738;2023-03-14T03:59:19;74649.50;;;-145.25;86.29
54146;BME280;65909;49.422;7.738;2023-03-14T04:01:44;74647.50;;;-145.25;86.21
54146;BME280;65909;49.422;7.738;2023-03-14T04:04:09;74665.53;;;-145.25;86.69
54146;BME280;65909;49.422;7.738;2023-03-14T04:06:37;74671.53;;;-145.25;86.46
54146;BME280;65909;49.422;7.738;2023-03-14T04:09:02;74645.50;;;-145.25;84.98
54146;BME280;65909;49.422;7.738;2023-03-14T04:11:28;74641.47;;;-145.25;84.58
54146;BME280;65909;49.422;7.738;2023-03-14T04:13:53;74639.47;;;-145.25;84.72
54146;BME280;65909;49.422;7.738;2023-03-14T04:16:23;74653.50;;;-145.25;84.93
54146;BME280;65909;49.422;7.738;2023-03-14T04:18:49;74661.53;;;-145.25;85.04
54146;BME280;65909;49.422;7.738;2023-03-14T04:21:15;74657.53;;;-145.25;85.32
54146;BME280;65909;49.422;7.738;2023-03-14T04:23:41;74649.50;;;-145.25;84.97
54146;BME280;65909;49.422;7.738;2023-03-14T04:26:06;74653.50;;;-145.25;85.08
54146;BME280;65909;49.422;7.738;2023-03-14T04:28:32;74639.47;;;-145.25;85.16
54146;BME280;65909;49.422;7.738;2023-03-14T04:30:57;74647.50;;;-145.25;84.57
54146;BME280;65909;49.422;7.738;2023-03-14T04:33:23;74617.44;;;-145.25;84.11
54146;BME280;65909;49.422;7.738;2023-03-14T04:35:48;74631.47;;;-145.25;83.89
54146;BME280;65909;49.422;7.738;2023-03-14T04:38:15;74633.47;;;-145.25;83.93
54146;BME280;65909;49.422;7.738;2023-03-14T04:40:41;74613.44;;;-145.25;82.71
54146;BME280;65909;49.422;7.738;2023-03-14T04:43:08;74615.44;;;-145.25;82.62
54146;BME280;65909;49.422;7.738;2023-03-14T04:45:35;74613.44;;;-145.25;82.76
54146;BME280;65909;49.422;7.738;2023-03-14T04:48:00;74617.44;;;-145.25;83.72
54146;BME280;65909;49.422;7.738;2023-03-14T04:50:25;74611.44;;;-145.25;82.24
54146;BME280;65909;49.422;7.738;2023-03-14T04:52:51;74617.44;;;-145.25;82.04
54146;BME280;65909;49.422;7.738;2023-03-14T04:55:16;74603.41;;;-145.25;82.04
54146;BME280;65909;49.422;7.738;2023-03-14T04:57:41;74603.41;;;-145.25;81.76
54146;BME280;65909;49.422;7.738;2023-03-14T05:00:07;74603.41;;;-145.25;81.13
54146;BME280;65909;49.422;7.738;2023-03-14T05:02:34;74601.41;;;-145.25;80.98
54146;BME280;65909;49.422;7.738;2023-03-14T05:04:59;74593.38;;;-145.25;81.43
54146;BME280;65909;49.422;7.738;2023-03-14T05:07:25;74613.44;;;-145.25;80.99
54146;BME280;65909;49.422;7.738;2023-03-14T05:09:50;74609.41;;;-145.25;80.90
54146;BME280;65909;49.422;7.738;2023-03-14T05:12:15;74605.41;;;-145.25;80.96
54146;BME280;65909;49.422;7.738;2023-03-14T05:14:41;74593.38;;;-145.25;80.78
54146;BME280;65909;49.422;7.738;2023-03-14T05:17:06;74607.41;;;-145.25;80.40
54146;BME280;65909;49.422;7.738;2023-03-14T05:19:31;74617.44;;;-145.25;79.71
54146;BME280;65909;49.422;7.738;2023-03-14T05:21:57;74599.41;;;-145.25;79.47
54146;BME280;65909;49.422;7.738;2023-03-14T05:24:22;74585.38;;;-145.25;79.26
54146;BME280;65909;49.422;7.738;2023-03-14T05:26:47;74591.38;;;-145.25;78.24
54146;BME280;65909;49.422;7.738;2023-03-14T05:29:13;74589.38;;;-145.25;78.76
54146;BME280;65909;49.422;7.738;2023-03-14T05:31:38;74583.38;;;-145.25;78.53
54146;BME280;65909;49.422;7.738;2023-03-14T05:34:04;74587.38;;;-145.25;78.24
54146;BME280;65909;49.422;7.738;2023-03-14T05:36:29;74583.38;;;-145.25;78.47
54146;BME280;65909;49.422;7.738;2023-03-14T05:38:55;74579.38;;;-145.25;78.37
54146;BME280;65909;49.422;7.738;2023-03-14T05:41:20;74595.41;;;-145.25;78.79
54146;BME280;65909;49.422;7.738;2023-03-14T05:43:45;74587.38;;;-145.25;78.82
54146;BME280;65909;49.422;7.738;2023-03-14T05:46:11;74583.38;;;-145.25;78.34
54146;BME280;65909;49.422;7.738;2023-03-14T05:48:36;74587.38;;;-145.25;78.23
54146;BME280;65909;49.422;7.738;2023-03-14T05:51:02;74591.38;;;-145.25;78.61
54146;BME280;65909;49.422;7.738;2023-03-14T05:53:27;74597.41;;;-145.25;78.88
54146;BME280;65909;49.422;7.738;2023-03-14T05:55:55;74589.38;;;-145.25;78.73
54146;BME280;65909;49.422;7.738;2023-03-14T05:58:20;74595.41;;;-145.25;79.07
54146;BME280;65909;49.422;7.738;2023-03-14T06:00:45;74579.38;;;-145.25;77.68
54146;BME280;65909;49.422;7.738;2023-03-14T06:03:11;74567.34;;;-145.25;78.05
54146;BME280;65909;49.422;7.738;2023-03-14T06:05:36;74567.34;;;-145.25;78.04
54146;BME280;65909;49.422;7.738;2023-03-14T06:08:02;74569.34;;;-145.25;77.84
54146;BME280;65909;49.422;7.738;2023-03-14T06:10:27;74581.38;;;-145.25;78.75
54146;BME280;65909;49.422;7.738;2023-03-14T06:12:52;74575.34;;;-145.25;77.76
54146;BME280;65909;49.422;7.738;2023-03-14T06:15:18;74577.34;;;-145.25;77.96
54146;BME280;65909;49.422;7.738;2023-03-14T06:17:43;74563.34;;;-145.25;77.91
54146;BME280;65909;49.422;7.738;2023-03-14T06:20:09;74569.34;;;-145.25;78.42
54146;BME280;65909;49.422;7.738;2023-03-14T06:22:35;74571.34;;;-145.25;78.25
54146;BME280;65909;49.422;7.738;2023-03-14T06:25:00;74567.34;;;-145.25;77.71
54146;BME280;65909;49.422;7.738;2023-03-14T06:27:25;74561.31;;;-145.25;78.03
54146;BME280;65909;49.422;7.738;2023-03-14T06:29:51;74577.34;;;-145.25;77.63
54146;BME280;65909;49.422;7.738;2023-03-14T06:32:17;74581.38;;;-145.25;78.31
54146;BME280;65909;49.422;7.738;2023-03-14T06:34:43;74577.34;;;-145.25;77.40
54146;BME280;65909;49.422;7.738;2023-03-14T06:37:08;74569.34;;;-145.25;77.59
54146;BME280;65909;49.422;7.738;2023-03-14T06:39:34;74579.38;;;-145.25;78.26
54146;BME280;65909;49.422;7.738;2023-03-14T06:41:59;74583.38;;;-145.25;77.95
54146;BME280;65909;49.422;7.738;2023-03-14T06:44:25;74565.34;;;-145.25;77.29
54146;BME280;65909;49.422;7.738;2023-03-14T06:46:50;74577.34;;;-145.25;78.02
54146;BME280;65909;49.422;7.738;2023-03-14T06:49:15;74589.38;;;-145.25;78.10
54146;BME280;65909;49.422;7.738;2023-03-14T06:51:41;74581.38;;;-145.25;77.87
54146;BME280;65909;49.422;7.738;2023-03-14T06:54:06;74579.38;;;-145.25;77.51
54146;BME280;65909;49.422;7.738;2023-03-14T06:56:31;74569.34;;;-145.25;77.06
54146;BME280;65909;49.422;7.738;2023-03-14T06:58:57;74565.34;;;-145.25;76.77
54146;BME280;65909;49.422;7.738;2023-03-14T07:01:27;74567.34;;;-145.25;76.87
54146;BME280;65909;49.422;7.738;2023-03-14T07:03:53;74567.34;;;-145.25;77.21
54146;BME280;65909;49.422;7.738;2023-03-14T07:06:18;74581.38;;;-145.25;78.05
54146;BME280;65909;49.422;7.738;2023-03-14T07:08:44;74569.34;;;-145.25;77.14
54146;BME280;65909;49.422;7.738;2023-03-14T07:11:10;74573.34;;;-145.25;77.21
54146;BME280;65909;49.422;7.738;2023-03-14T07:13:37;74573.34;;;-145.25;76.80
54146;BME280;65909;49.422;7.738;2023-03-14T07:16:03;74579.38;;;-145.25;77.69
54146;BME280;65909;49.422;7.738;2023-03-14T07:18:28;74587.38;;;-145.25;78.15
54146;BME280;65909;49.422;7.738;2023-03-14T07:20:54;74591.38;;;-145.25;77.61
54146;BME280;65909;49.422;7.738;2023-03-14T07:23:19;74581.38;;;-145.25;77.94
54146;BME280;65909;49.422;7.738;2023-03-14T07:25:44;74583.38;;;-145.25;77.62
54146;BME280;65909;49.422;7.738;2023-03-14T07:28:10;74585.38;;;-145.25;77.83
54146;BME280;65909;49.422;7.738;2023-03-14T07:30:35;74577.34;;;-145.25;77.29
54146;BME280;65909;49.422;7.738;2023-03-14T07:33:00;74577.34;;;-145.25;77.67
54146;BME280;65909;49.422;7.738;2023-03-14T07:35:26;74561.31;;;-145.25;77.02
54146;BME280;65909;49.422;7.738;2023-03-14T07:37:51;74561.31;;;-145.25;77.67
54146;BME280;65909;49.422;7.738;2023-03-14T07:40:17;74559.31;;;-145.25;78.07
54146;BME280;65909;49.422;7.738;2023-03-14T07:42:42;74573.34;;;-145.25;79.82
54146;BME280;65909;49.422;7.738;2023-03-14T07:45:09;74581.38;;;-145.25;81.12
54146;BME280;65909;49.422;7.738;2023-03-14T07:47:35;74573.34;;;-145.25;80.78
54146;BME280;65909;49.422;7.738;2023-03-14T07:50:01;74583.38;;;-145.25;81.52
54146;BME280;65909;49.422;7.738;2023-03-14T07:52:26;74585.38;;;-145.25;81.50
54146;BME280;65909;49.422;7.738;2023-03-14T07:54:52;74595.41;;;-145.25;82.48
54146;BME280;65909;49.422;7.738;2023-03-14T07:57:17;74605.41;;;-145.25;85.41
54146;BME280;65909;49.422;7.738;2023-03-14T07:59:42;74619.44;;;-145.25;86.49
54146;BME280;65909;49.422;7.738;2023-03-14T08:02:11;74639.47;;;-145.25;89.23
54146;BME280;65909;49.422;7.738;2023-03-14T08:04:38;74641.47;;;-145.25;90.08
54146;BME280;65909;49.422;7.738;2023-03-14T08:07:03;74641.47;;;-145.25;91.14
54146;BME280;65909;49.422;7.738;2023-03-14T08:09:29;74625.44;;;-145.25;88.58
54146;BME280;65909;49.422;7.738;2023-03-14T08:11:54;74617.44;;;-145.25;88.02
54146;BME280;65909;49.422;7.738;2023-03-14T08:14:20;74629.47;;;-145.25;87.90
54146;BME280;65909;49.422;7.738;2023-03-14T08:16:45;74609.41;;;-145.25;87.31
54146;BME280;65909;49.422;7.738;2023-03-14T08:19:10;74593.38;;;-145.25;86.27
54146;BME280;65909;49.422;7.738;2023-03-14T08:21:36;74581.38;;;-145.25;84.36
54146;BME280;65909;49.422;7.738;2023-03-14T08:24:01;74589.38;;;-145.25;84.43
54146;BME280;65909;49.422;7.738;2023-03-14T08:26:27;74605.41;;;-145.25;83.66
54146;BME280;65909;49.422;7.738;2023-03-14T08:28:52;74585.38;;;-145.25;84.41
54146;BME280;65909;49.422;7.738;2023-03-14T08:31:17;74603.41;;;-145.25;85.30
54146;BME280;65909;49.422;7.738;2023-03-14T08:33:43;74625.44;;;-145.25;88.03
54146;BME280;65909;49.422;7.738;2023-03-14T08:36:08;74633.47;;;-145.25;88.78
54146;BME280;65909;49.422;7.738;2023-03-14T08:38:34;74633.47;;;-145.25;87.52
54146;BME280;65909;49.422;7.738;2023-03-14T08:41:01;74623.44;;;-145.25;86.05
54146;BME280;65909;49.422;7.738;2023-03-14T08:43:28;74611.44;;;-145.25;85.32
54146;BME280;65909;49.422;7.738;2023-03-14T08:45:57;74605.41;;;-145.25;84.84
54146;BME280;65909;49.422;7.738;2023-03-14T08:48:22;74603.41;;;-145.25;85.71
54146;BME280;65909;49.422;7.738;2023-03-14T08:50:48;74593.38;;;-145.25;85.53
54146;BME280;65909;49.422;7.738;2023-03-14T08:53:14;74597.41;;;-145.25;85.36
54146;BME280;65909;49.422;7.738;2023-03-14T08:55:39;74603.41;;;-145.25;84.51
54146;BME280;65909;49.422;7.738;2023-03-14T08:58:04;74593.38;;;-145.25;84.59
54146;BME280;65909;49.422;7.738;2023-03-14T09:00:30;74583.38;;;-145.25;83.95
54146;BME280;65909;49.422;7.738;2023-03-14T09:02:55;74571.34;;;-145.25;82.88
54146;BME280;65909;49.422;7.738;2023-03-14T09:05:20;74557.31;;;-145.25;81.97
54146;BME280;65909;49.422;7.738;2023-03-14T09:07:46;74523.25;;;-145.25;81.29
54146;BME280;65909;49.422;7.738;2023-03-14T09:10:11;74511.22;;;-145.25;79.92
54146;BME280;65909;49.422;7.738;2023-03-14T09:12:37;74481.19;;;-145.25;80.37
54146;BME280;65909;49.422;7.738;2023-03-14T09:15:03;74511.22;;;-145.25;79.72
54146;BME280;65909;49.422;7.738;2023-03-14T09:17:28;74491.19;;;-145.25;78.99
54146;BME280;65909;49.422;7.738;2023-03-14T09:19:54;74503.22;;;-145.25;78.72
54146;BME280;65909;49.422;7.738;2023-03-14T09:22:19;74507.22;;;-145.25;80.15
54146;BME280;65909;49.422;7.738;2023-03-14T09:24:45;74503.22;;;-145.25;78.97
54146;BME280;65909;49.422;7.738;2023-03-14T09:27:11;74467.16;;;-145.25;77.43
54146;BME280;65909;49.422;7.738;2023-03-14T09:29:36;74485.19;;;-145.25;77.69
54146;BME280;65909;49.422;7.738;2023-03-14T09:32:02;74493.19;;;-145.25;77.55
54146;BME280;65909;49.422;7.738;2023-03-14T09:34:28;74509.22;;;-145.25;78.66
54146;BME280;65909;49.422;7.738;2023-03-14T09:36:53;74539.28;;;-145.25;81.97
54146;BME280;65909;49.422;7.738;2023-03-14T09:39:19;74557.31;;;-145.25;82.89
54146;BME280;65909;49.422;7.738;2023-03-14T09:41:47;74583.38;;;-145.25;84.50
54146;BME280;65909;49.422;7.738;2023-03-14T09:44:25;74593.38;;;-145.25;87.05
54146;BME280;65909;49.422;7.738;2023-03-14T09:46:53;74615.44;;;-145.25;89.59
54146;BME280;65909;49.422;7.738;2023-03-14T09:49:23;74647.50;;;-145.25;94.00
54146;BME280;65909;49.422;7.738;2023-03-14T09:51:51;74649.50;;;-145.25;94.36
54146;BME280;65909;49.422;7.738;2023-03-14T09:54:32;74653.50;;;-145.25;93.61
54146;BME280;65909;49.422;7.738;2023-03-14T09:56:59;74671.53;;;-145.25;95.70
54146;BME280;65909;49.422;7.738;2023-03-14T09:59:27;74665.53;;;-145.25;95.85
54146;BME280;65909;49.422;7.738;2023-03-14T10:01:56;74653.50;;;-145.25;95.51
54146;BME280;65909;49.422;7.738;2023-03-14T10:04:23;74653.50;;;-145.25;94.10
54146;BME280;65909;49.422;7.738;2023-03-14T10:06:48;74653.50;;;-145.25;95.25
54146;BME280;65909;49.422;7.738;2023-03-14T10:09:20;74663.53;;;-145.25;94.18
54146;BME280;65909;49.422;7.738;2023-03-14T10:11:57;74659.53;;;-145.25;94.51
54146;BME280;65909;49.422;7.738;2023-03-14T10:14:33;74649.50;;;-145.25;95.64
54146;BME280;65909;49.422;7.738;2023-03-14T10:17:06;74633.47;;;-145.25;94.04
54146;BME280;65909;49.422;7.738;2023-03-14T10:19:32;74603.41;;;-145.25;92.33
54146;BME280;65909;49.422;7.738;2023-03-14T10:22:00;74583.38;;;-145.25;91.06
54146;BME280;65909;49.422;7.738;2023-03-14T10:24:34;74555.31;;;-145.25;88.84
54146;BME280;65909;49.422;7.738;2023-03-14T10:27:03;74541.28;;;-145.25;86.42
54146;BME280;65909;49.422;7.738;2023-03-14T10:29:33;74549.31;;;-145.25;88.38
54146;BME280;65909;49.422;7.738;2023-03-14T10:32:04;74535.28;;;-145.25;86.65
54146;BME280;65909;49.422;7.738;2023-03-14T10:34:33;74531.28;;;-145.25;85.89
54146;BME280;65909;49.422;7.738;2023-03-14T10:37:07;74523.25;;;-145.25;84.94
54146;BME280;65909;49.422;7.738;2023-03-14T10:39:36;74519.25;;;-145.25;85.22
54146;BME280;65909;49.422;7.738;2023-03-14T10:42:11;74521.25;;;-145.25;84.17
54146;BME280;65909;49.422;7.738;2023-03-14T10:44:39;74521.25;;;-145.25;84.31
54146;BME280;65909;49.422;7.738;2023-03-14T10:47:05;74529.25;;;-145.25;85.12
54146;BME280;65909;49.422;7.738;2023-03-14T10:49:36;74541.28;;;-145.25;88.53
54146;BME280;65909;49.422;7.738;2023-03-14T10:52:19;74571.34;;;-145.25;90.83
54146;BME280;65909;49.422;7.738;2023-03-14T10:57:43;74605.41;;;-145.25;93.42
54146;BME280;65909;49.422;7.738;2023-03-14T11:00:27;74615.44;;;-145.25;94.29
54146;BME280;65909;49.422;7.738;2023-03-14T11:03:06;74607.41;;;-145.25;95.11
54146;BME280;65909;49.422;7.738;2023-03-14T11:08:11;74613.44;;;-145.25;96.23
54146;BME280;65909;49.422;7.738;2023-03-14T11:10:43;74599.41;;;-145.25;95.78
54146;BME280;65909;49.422;7.738;2023-03-14T11:18:36;74623.44;;;-145.25;98.10
54146;BME280;65909;49.422;7.738;2023-03-14T11:28:59;74645.50;;;-145.25;100.00
54146;BME280;65909;49.422;7.738;2023-03-14T11:31:29;74655.50;;;-145.25;100.00
54146;BME280;65909;49.422;7.738;2023-03-14T11:34:13;74661.53;;;-145.25;100.00
54146;BME280;65909;49.422;7.738;2023-03-14T11:36:52;74663.53;;;-145.25;100.00
54146;BME280;65909;49.422;7.738;2023-03-14T11:39:19;74667.53;;;-145.25;100.00
54146;BME280;65909;49.422;7.738;2023-03-14T11:41:52;74655.50;;;-145.25;100.00
54146;BME280;65909;49.422;7.738;2023-03-14T11:44:20;74649.50;;;-145.25;100.00
54146;BME280;65909;49.422;7.738;2023-03-14T11:46:59;74641.47;;;-145.25;100.00
54146;BME280;65909;49.422;7.738;2023-03-14T11:49:38;74629.47;;;-145.25;100.00
54146;BME280;65909;49.422;7.738;2023-03-14T11:52:35;74635.47;;;-145.25;100.00
54146;BME280;65909;49.422;7.738;2023-03-14T11:55:13;74621.44;;;-145.25;100.00
54146;BME280;65909;49.422;7.738;2023-03-14T11:57:42;74631.47;;;-145.25;100.00
54146;BME280;65909;49.422;7.738;2023-03-14T12:03:04;74627.47;;;-145.25;100.00
54146;BME280;65909;49.422;7.738;2023-03-14T12:08:53;74623.44;;;-145.25;100.00
54146;BME280;65909;49.422;7.738;2023-03-14T12:14:02;74785.78;;;-145.25;100.00
54146;BME280;65909;49.422;7.738;2023-03-14T12:16:38;74861.94;;;-145.25;97.50
54146;BME280;65909;49.422;7.738;2023-03-14T12:19:34;74869.94;;;-145.25;91.73
54146;BME280;65909;49.422;7.738;2023-03-14T12:24:33;74894.00;;;-145.25;90.47
54146;BME280;65909;49.422;7.738;2023-03-14T12:27:02;74887.97;;;-145.25;88.97
54146;BME280;65909;49.422;7.738;2023-03-14T12:29:28;74887.97;;;-145.25;87.61
54146;BME280;65909;49.422;7.738;2023-03-14T12:34:39;74861.94;;;-145.25;86.28
54146;BME280;65909;49.422;7.738;2023-03-14T12:39:50;74875.97;;;-145.25;83.74
54146;BME280;65909;49.422;7.738;2023-03-14T12:45:31;74879.97;;;-145.25;83.01
54146;BME280;65909;49.422;7.738;2023-03-14T12:48:01;74873.94;;;-145.25;83.92
54146;BME280;65909;49.422;7.738;2023-03-14T12:50:34;74881.97;;;-145.25;83.27
54146;BME280;65909;49.422;7.738;2023-03-14T12:55:57;74861.94;;;-145.25;83.34
54146;BME280;65909;49.422;7.738;2023-03-14T12:58:39;74875.97;;;-145.25;81.09
54146;BME280;65909;49.422;7.738;2023-03-14T13:01:15;74875.97;;;-145.25;79.61
54146;BME280;65909;49.422;7.738;2023-03-14T13:03:51;74912.03;;;-145.25;79.90
54146;BME280;65909;49.422;7.738;2023-03-14T13:09:35;74960.13;;;-145.25;80.21
54146;BME280;65909;49.422;7.738;2023-03-14T13:12:03;74982.16;;;-145.25;78.85
54146;BME280;65909;49.422;7.738;2023-03-14T13:14:34;74960.13;;;-145.25;77.28
54146;BME280;65909;49.422;7.738;2023-03-14T13:17:01;74958.13;;;-145.25;75.98
54146;BME280;65909;49.422;7.738;2023-03-14T13:19:29;74950.09;;;-145.25;78.02
54146;BME280;65909;49.422;7.738;2023-03-14T13:22:18;74980.16;;;-145.25;75.01
54146;BME280;65909;49.422;7.738;2023-03-14T13:24:45;75000.22;;;-145.25;75.06
54146;BME280;65909;49.422;7.738;2023-03-14T13:27:18;74970.16;;;-145.25;74.15
54146;BME280;65909;49.422;7.738;2023-03-14T13:29:48;74936.06;;;-145.25;73.54
54146;BME280;65909;49.422;7.738;2023-03-14T13:32:20;74922.06;;;-145.25;73.44
54146;BME280;65909;49.422;7.738;2023-03-14T13:34:47;74928.06;;;-145.25;71.60